Time;durP1;ratioP1;P1;durP2;ratioP2;P2;SDS_P1;SDS_P2;PMS_P1;PMS_P2;Temp;Humidity;BMP_temperature;BMP_pressure;BME280_temperature;BME280_humidity;BME280_pressure;Samples;Min_cycle;Max_cycle;Signal;HPM_P1;HPM_P2
2022/02/16 00:01:32;;;;;;;3.93;1.90;;;5.50;99.90;;;;;;4975757;28;20197;-71
2022/02/16 00:03:58;;;;;;;4.10;2.37;;;5.60;99.90;;;;;;4975583;28;20448;-71
2022/02/16 00:06:23;;;;;;;1.93;1.43;;;5.60;99.90;;;;;;4975522;28;20170;-71
2022/02/16 00:08:49;;;;;;;2.43;1.70;;;5.60;99.90;;;;;;4975795;28;20173;-71
2022/02/16 00:11:14;;;;;;;1.50;1.40;;;5.60;99.90;;;;;;4975606;28;20256;-71
2022/02/16 00:13:40;;;;;;;1.83;1.73;;;5.60;99.90;;;;;;4975651;28;20185;-70
2022/02/16 00:16:08;;;;;;;1.90;1.40;;;5.60;99.90;;;;;;4975518;28;20217;-71
2022/02/16 00:18:38;;;;;;;2.30;1.70;;;5.70;99.90;;;;;;4975440;28;20173;-71
2022/02/16 00:21:04;;;;;;;1.57;1.47;;;5.70;99.90;;;;;;4967574;28;20524;-71
2022/02/16 00:23:30;;;;;;;5.17;1.70;;;5.70;99.90;;;;;;5019478;23;20854;-67
2022/02/16 00:25:56;;;;;;;1.93;1.67;;;5.70;99.90;;;;;;5015655;28;20442;-67
2022/02/16 00:28:22;;;;;;;3.37;1.30;;;5.80;99.90;;;;;;5015136;28;20196;-67
2022/02/16 00:30:47;;;;;;;1.07;0.97;;;5.80;99.90;;;;;;5015138;28;20168;-67
2022/02/16 00:33:13;;;;;;;1.87;1.23;;;5.90;99.90;;;;;;5014859;28;20992;-67
2022/02/16 00:35:38;;;;;;;1.67;1.40;;;6.00;99.90;;;;;;5014809;28;20176;-67
2022/02/16 00:38:04;;;;;;;1.60;1.07;;;6.20;99.90;;;;;;5015566;28;20663;-67
2022/02/16 00:40:30;;;;;;;1.43;1.00;;;6.30;99.90;;;;;;5016032;28;20508;-67
2022/02/16 00:42:55;;;;;;;1.10;1.00;;;6.00;99.90;;;;;;5015265;28;20188;-69
2022/02/16 00:45:21;;;;;;;1.40;1.10;;;6.10;99.90;;;;;;5013757;28;20556;-69
2022/02/16 00:47:47;;;;;;;3.23;1.40;;;6.10;99.90;;;;;;5013706;28;20276;-69
2022/02/16 00:50:13;;;;;;;1.50;1.30;;;6.00;99.90;;;;;;5013465;28;20263;-68
2022/02/16 00:52:38;;;;;;;1.40;1.23;;;6.00;99.90;;;;;;5013542;28;20522;-67
2022/02/16 00:55:06;;;;;;;2.13;1.30;;;5.90;99.90;;;;;;5013593;28;20173;-68
2022/02/16 00:57:32;;;;;;;0.70;0.70;;;6.00;99.90;;;;;;5013656;28;20179;-67
2022/02/16 00:59:58;;;;;;;2.03;1.23;;;6.00;99.90;;;;;;5013423;28;20407;-67
2022/02/16 01:02:23;;;;;;;1.70;1.50;;;6.00;99.90;;;;;;5013395;28;20184;-67
2022/02/16 01:04:49;;;;;;;1.00;0.90;;;6.00;99.90;;;;;;5013157;28;20439;-68
2022/02/16 01:07:14;;;;;;;1.83;1.67;;;6.00;99.90;;;;;;5013615;28;20180;-68
2022/02/16 01:09:40;;;;;;;3.70;1.20;;;5.90;99.90;;;;;;5013677;28;20172;-68
2022/02/16 01:12:06;;;;;;;1.20;1.10;;;5.90;99.90;;;;;;5014248;28;20200;-68
2022/02/16 01:14:32;;;;;;;1.73;1.43;;;5.80;99.90;;;;;;5013960;28;20230;-69
2022/02/16 01:16:57;;;;;;;0.90;0.90;;;5.80;99.90;;;;;;5013771;28;20259;-69
2022/02/16 01:19:23;;;;;;;1.53;1.40;;;5.80;99.90;;;;;;5012940;28;20207;-69
2022/02/16 01:21:48;;;;;;;1.37;1.27;;;5.80;99.90;;;;;;5012749;28;20204;-70
2022/02/16 01:24:14;;;;;;;1.67;1.17;;;5.70;99.90;;;;;;5013162;28;20560;-70
2022/02/16 01:26:39;;;;;;;2.27;1.50;;;5.70;99.90;;;;;;5013079;28;20266;-70
2022/02/16 01:29:04;;;;;;;2.17;1.23;;;5.60;99.90;;;;;;5012854;28;20238;-69
2022/02/16 01:31:30;;;;;;;1.93;1.70;;;5.70;99.90;;;;;;5013027;28;20173;-68
2022/02/16 01:33:55;;;;;;;3.20;1.57;;;5.60;99.90;;;;;;4995091;28;20175;-68
2022/02/16 01:36:21;;;;;;;1.10;1.00;;;5.70;99.90;;;;;;5012602;28;20614;-68
2022/02/16 01:38:46;;;;;;;1.23;1.13;;;5.50;99.90;;;;;;5012680;28;20526;-69
2022/02/16 01:41:15;;;;;;;1.53;1.20;;;5.70;99.90;;;;;;5012592;28;20172;-68
2022/02/16 01:43:48;;;;;;;1.40;1.30;;;5.50;99.90;;;;;;5012463;28;20207;-68
2022/02/16 01:46:14;;;;;;;1.50;1.40;;;5.40;99.90;;;;;;5012378;28;20498;-68
2022/02/16 01:48:39;;;;;;;1.63;1.53;;;5.60;99.90;;;;;;5012758;28;20419;-69
2022/02/16 01:51:05;;;;;;;1.80;1.17;;;5.50;99.90;;;;;;5012568;28;20457;-69
2022/02/16 01:53:31;;;;;;;1.30;0.90;;;5.40;99.90;;;;;;5012259;28;20188;-68
2022/02/16 01:55:56;;;;;;;2.17;1.87;;;5.40;99.90;;;;;;5011970;28;20179;-68
2022/02/16 01:58:23;;;;;;;1.93;1.40;;;5.40;99.90;;;;;;5012297;28;20415;-68
2022/02/16 02:00:49;;;;;;;1.43;1.33;;;5.50;99.90;;;;;;5012198;28;20310;-68
2022/02/16 02:03:14;;;;;;;1.90;1.70;;;5.40;99.90;;;;;;5012412;28;20980;-68
2022/02/16 02:05:40;;;;;;;4.00;1.70;;;5.40;99.90;;;;;;5011980;28;20279;-68
2022/02/16 02:08:06;;;;;;;1.03;1.03;;;5.40;99.90;;;;;;5012359;28;20638;-68
2022/02/16 02:10:31;;;;;;;1.47;1.37;;;5.40;99.90;;;;;;5012394;28;20299;-68
2022/02/16 02:12:58;;;;;;;2.03;1.13;;;5.40;99.90;;;;;;4994275;28;20443;-68
2022/02/16 02:15:24;;;;;;;1.40;1.13;;;5.40;99.90;;;;;;5012219;28;20223;-68
2022/02/16 02:17:50;;;;;;;1.57;1.47;;;5.40;99.90;;;;;;5012016;28;20419;-68
2022/02/16 02:20:24;;;;;;;1.40;1.30;;;5.30;99.90;;;;;;5012185;28;20399;-68
2022/02/16 02:22:51;;;;;;;1.57;1.47;;;5.40;99.90;;;;;;5011738;28;20717;-68
2022/02/16 02:25:16;;;;;;;1.70;1.00;;;5.30;99.90;;;;;;5011853;28;20505;-68
2022/02/16 02:27:42;;;;;;;2.00;1.40;;;5.30;99.90;;;;;;5011876;28;20411;-68
2022/02/16 02:30:09;;;;;;;2.17;1.97;;;5.50;99.90;;;;;;5011795;28;20248;-68
2022/02/16 02:32:34;;;;;;;1.90;1.73;;;5.30;99.90;;;;;;5010744;28;20868;-67
2022/02/16 02:35:00;;;;;;;1.80;1.70;;;5.40;99.90;;;;;;5011850;28;20439;-67
2022/02/16 02:37:26;;;;;;;1.60;1.40;;;5.40;99.90;;;;;;5011755;28;20174;-67
2022/02/16 02:39:51;;;;;;;3.57;2.23;;;5.30;99.90;;;;;;5011738;28;20517;-67
2022/02/16 02:42:17;;;;;;;1.90;1.80;;;5.30;99.90;;;;;;5011365;28;20196;-67
2022/02/16 02:44:42;;;;;;;3.03;1.30;;;5.30;99.90;;;;;;5011519;28;20200;-67
2022/02/16 02:47:08;;;;;;;4.97;3.13;;;5.30;99.90;;;;;;5011659;28;20168;-67
2022/02/16 02:49:35;;;;;;;3.10;2.90;;;5.30;99.90;;;;;;5011695;28;20183;-67
2022/02/16 02:52:00;;;;;;;1.60;1.50;;;5.30;99.90;;;;;;5011510;28;20195;-68
2022/02/16 02:54:26;;;;;;;1.80;1.70;;;5.50;99.90;;;;;;5011622;28;20403;-67
2022/02/16 02:56:51;;;;;;;1.40;1.40;;;5.40;99.90;;;;;;5011500;28;20251;-68
2022/02/16 02:59:17;;;;;;;2.40;2.20;;;5.40;99.90;;;;;;5012237;28;20182;-68
2022/02/16 03:01:42;;;;;;;1.93;1.73;;;5.50;99.90;;;;;;5011528;28;20695;-68
2022/02/16 03:04:08;;;;;;;2.07;1.83;;;5.50;99.90;;;;;;5011509;28;20571;-67
2022/02/16 03:06:33;;;;;;;1.93;1.80;;;5.50;99.90;;;;;;5012297;28;20211;-68
2022/02/16 03:08:58;;;;;;;1.23;1.13;;;5.40;99.90;;;;;;5015701;28;20653;-67
2022/02/16 03:11:24;;;;;;;1.90;1.73;;;5.50;99.90;;;;;;5015408;28;20217;-67
2022/02/16 03:13:49;;;;;;;2.90;1.50;;;5.60;99.90;;;;;;5015420;28;20172;-67
2022/02/16 03:16:15;;;;;;;1.23;1.13;;;5.60;99.90;;;;;;5015607;28;20172;-67
2022/02/16 03:18:41;;;;;;;2.90;1.67;;;5.50;99.90;;;;;;5015525;28;20176;-68
2022/02/16 03:21:06;;;;;;;1.90;1.77;;;5.50;99.90;;;;;;5015489;28;20180;-67
2022/02/16 03:23:32;;;;;;;2.00;1.77;;;5.50;99.90;;;;;;5015206;28;20218;-68
2022/02/16 03:25:57;;;;;;;2.17;1.60;;;5.50;99.90;;;;;;5015073;28;20317;-67
2022/02/16 03:28:23;;;;;;;3.13;1.80;;;5.50;99.90;;;;;;4997660;28;20176;-67
2022/02/16 03:30:48;;;;;;;2.60;2.40;;;5.50;99.90;;;;;;5015365;28;20547;-68
2022/02/16 03:33:14;;;;;;;2.70;1.60;;;5.50;99.90;;;;;;5014945;28;20222;-67
2022/02/16 03:35:39;;;;;;;2.70;1.13;;;5.50;99.90;;;;;;5015201;28;20731;-67
2022/02/16 03:38:05;;;;;;;1.80;1.70;;;5.50;99.90;;;;;;5015239;28;20183;-67
2022/02/16 03:40:30;;;;;;;3.20;1.60;;;5.50;99.90;;;;;;5015010;28;20506;-67
2022/02/16 03:42:57;;;;;;;1.50;1.40;;;5.50;99.90;;;;;;5015172;28;20219;-67
2022/02/16 03:45:24;;;;;;;1.67;1.37;;;5.50;99.90;;;;;;5015214;28;20310;-67
2022/02/16 03:47:49;;;;;;;3.30;1.63;;;5.50;99.90;;;;;;5015169;28;20469;-67
2022/02/16 03:50:15;;;;;;;2.00;1.77;;;5.50;99.90;;;;;;5014867;28;20407;-68
2022/02/16 03:52:41;;;;;;;2.90;2.57;;;5.60;99.90;;;;;;5014857;28;20242;-67
2022/02/16 03:55:07;;;;;;;3.90;1.50;;;5.60;99.90;;;;;;5014880;28;20537;-67
2022/02/16 03:57:32;;;;;;;1.77;1.67;;;5.60;99.90;;;;;;5014573;28;20733;-68
2022/02/16 03:59:58;;;;;;;1.93;1.40;;;5.60;99.90;;;;;;5014685;28;20411;-67
2022/02/16 04:02:23;;;;;;;1.40;1.30;;;5.60;99.90;;;;;;5014611;28;20238;-67
2022/02/16 04:04:49;;;;;;;2.83;1.90;;;5.70;99.90;;;;;;5014505;28;20230;-67
2022/02/16 04:07:14;;;;;;;2.30;1.33;;;5.70;99.90;;;;;;5014935;28;20627;-67
2022/02/16 04:09:41;;;;;;;2.20;1.53;;;5.70;99.90;;;;;;5014436;28;20592;-67
2022/02/16 04:12:08;;;;;;;1.70;1.60;;;5.70;99.90;;;;;;5015718;28;20560;-67
2022/02/16 04:14:33;;;;;;;3.10;1.80;;;5.70;99.90;;;;;;5016023;28;20456;-68
2022/02/16 04:16:58;;;;;;;1.87;1.23;;;5.80;99.90;;;;;;5016431;28;20530;-67
2022/02/16 04:19:24;;;;;;;1.40;1.30;;;5.70;99.90;;;;;;5013255;28;20176;-67
2022/02/16 04:21:50;;;;;;;1.70;1.30;;;5.80;99.90;;;;;;5014206;28;20263;-67
2022/02/16 04:24:15;;;;;;;1.90;1.80;;;5.80;99.90;;;;;;5014503;28;20210;-67
2022/02/16 04:26:41;;;;;;;1.87;1.40;;;5.80;99.90;;;;;;5014714;28;20983;-67
2022/02/16 04:29:06;;;;;;;1.40;1.30;;;5.80;99.90;;;;;;5014408;28;20580;-67
2022/02/16 04:31:32;;;;;;;1.50;1.30;;;5.80;99.90;;;;;;5014906;28;20176;-67
2022/02/16 04:33:57;;;;;;;2.50;1.50;;;5.80;99.90;;;;;;5014634;28;20180;-67
2022/02/16 04:36:26;;;;;;;2.57;2.37;;;5.80;99.90;;;;;;5014636;28;20621;-67
2022/02/16 04:38:58;;;;;;;1.57;1.47;;;5.80;99.90;;;;;;5014763;28;20203;-67
2022/02/16 04:41:24;;;;;;;1.70;1.60;;;5.80;99.90;;;;;;5015148;28;20415;-68
2022/02/16 04:43:50;;;;;;;1.93;1.40;;;5.80;99.90;;;;;;5015326;28;20419;-67
2022/02/16 04:46:16;;;;;;;2.33;2.03;;;5.80;99.90;;;;;;5015406;28;20490;-68
2022/02/16 04:48:42;;;;;;;1.40;1.30;;;5.90;99.90;;;;;;5014173;28;20734;-67
2022/02/16 04:51:07;;;;;;;2.40;2.20;;;5.90;99.90;;;;;;5013737;28;20556;-67
2022/02/16 04:53:33;;;;;;;2.47;1.90;;;5.90;99.90;;;;;;5013373;28;20439;-66
2022/02/16 04:55:59;;;;;;;1.90;1.80;;;6.00;99.90;;;;;;5013548;28;20184;-68
2022/02/16 04:58:25;;;;;;;1.70;1.60;;;6.00;99.90;;;;;;5013579;28;20276;-68
2022/02/16 05:00:51;;;;;;;1.60;1.50;;;5.90;99.90;;;;;;5013592;28;20769;-68
2022/02/16 05:03:16;;;;;;;1.50;1.40;;;6.00;99.90;;;;;;5013325;28;20203;-68
2022/02/16 05:05:41;;;;;;;1.40;1.30;;;6.00;99.90;;;;;;5013643;28;20200;-68
2022/02/16 05:08:07;;;;;;;1.80;1.37;;;6.10;99.90;;;;;;5013678;28;20176;-68
2022/02/16 05:10:32;;;;;;;4.30;1.60;;;6.00;99.90;;;;;;5013576;28;20168;-68
2022/02/16 05:12:58;;;;;;;1.17;1.07;;;6.00;99.90;;;;;;5013265;28;20188;-68
2022/02/16 05:15:23;;;;;;;1.30;1.20;;;6.10;99.90;;;;;;5013225;28;20240;-68
2022/02/16 05:17:49;;;;;;;1.73;1.63;;;6.10;99.90;;;;;;5013337;28;20223;-68
2022/02/16 05:20:14;;;;;;;2.10;1.63;;;6.20;99.90;;;;;;5013317;28;20172;-68
2022/02/16 05:22:40;;;;;;;5.30;2.10;;;6.40;99.90;;;;;;5013011;28;20226;-68
2022/02/16 05:25:06;;;;;;;1.40;1.30;;;6.20;99.90;;;;;;5013048;28;20534;-68
2022/02/16 05:27:31;;;;;;;2.40;1.77;;;6.10;99.90;;;;;;5013504;28;20171;-68
2022/02/16 05:29:56;;;;;;;1.60;1.43;;;6.10;99.90;;;;;;5012868;28;20447;-69
2022/02/16 05:32:22;;;;;;;1.57;1.47;;;6.10;99.90;;;;;;5013402;28;20670;-69
2022/02/16 05:34:47;;;;;;;1.47;1.37;;;6.30;99.90;;;;;;5012807;28;20264;-69
2022/02/16 05:37:13;;;;;;;1.30;1.20;;;6.20;99.90;;;;;;5012820;28;20183;-68
2022/02/16 05:39:38;;;;;;;1.53;1.37;;;6.20;99.90;;;;;;5013059;28;20172;-69
2022/02/16 05:42:05;;;;;;;2.37;1.90;;;6.10;99.90;;;;;;5012725;28;20686;-68
2022/02/16 05:44:30;;;;;;;2.43;1.53;;;6.10;99.90;;;;;;5012456;28;20279;-69
2022/02/16 05:46:56;;;;;;;1.50;1.40;;;6.10;99.90;;;;;;5012918;28;20491;-69
2022/02/16 05:49:21;;;;;;;2.97;1.87;;;6.10;99.90;;;;;;5012683;28;20173;-68
2022/02/16 05:51:47;;;;;;;3.10;2.27;;;6.20;99.90;;;;;;5012424;28;20196;-69
2022/02/16 05:54:12;;;;;;;1.73;1.60;;;6.20;99.90;;;;;;5012474;28;20528;-68
2022/02/16 05:56:38;;;;;;;2.97;1.90;;;6.20;99.90;;;;;;5012720;28;20168;-69
2022/02/16 05:59:03;;;;;;;1.57;1.47;;;6.20;99.90;;;;;;5012787;28;20205;-68
2022/02/16 06:01:28;;;;;;;2.33;2.13;;;6.20;99.90;;;;;;5012760;28;20171;-69
2022/02/16 06:03:54;;;;;;;5.03;1.83;;;6.20;99.90;;;;;;5012604;28;20180;-69
2022/02/16 06:06:19;;;;;;;2.87;2.47;;;6.10;99.90;;;;;;5012314;28;20247;-69
2022/02/16 06:08:45;;;;;;;5.47;1.93;;;6.10;99.90;;;;;;5012663;28;20182;-69
2022/02/16 06:11:11;;;;;;;2.57;2.37;;;6.10;99.90;;;;;;5012392;28;20171;-68
2022/02/16 06:13:37;;;;;;;1.33;1.23;;;6.10;99.90;;;;;;5012300;28;20194;-69
2022/02/16 06:16:03;;;;;;;1.77;1.67;;;6.10;99.90;;;;;;5012096;28;20251;-69
2022/02/16 06:18:29;;;;;;;2.33;1.43;;;6.00;99.90;;;;;;5012401;28;20407;-69
2022/02/16 06:20:57;;;;;;;1.27;1.17;;;6.10;99.90;;;;;;5012302;28;20498;-68
2022/02/16 06:23:23;;;;;;;1.93;1.83;;;6.00;99.90;;;;;;5012253;28;20208;-71
2022/02/16 06:25:48;;;;;;;1.80;1.57;;;6.00;99.90;;;;;;5011813;28;21071;-69
2022/02/16 06:28:14;;;;;;;2.07;1.77;;;6.00;99.90;;;;;;5012238;28;20176;-69
2022/02/16 06:30:39;;;;;;;1.20;1.10;;;6.10;99.90;;;;;;5012049;28;20576;-69
2022/02/16 06:33:05;;;;;;;1.80;1.70;;;6.10;99.90;;;;;;5011818;28;20184;-69
2022/02/16 06:35:31;;;;;;;1.70;1.37;;;6.00;99.90;;;;;;5011869;28;20203;-70
2022/02/16 06:37:56;;;;;;;3.50;1.80;;;6.00;99.90;;;;;;5012095;28;20674;-68
2022/02/16 06:40:22;;;;;;;1.93;1.53;;;6.00;99.90;;;;;;5011945;28;20251;-69
2022/02/16 06:42:47;;;;;;;1.70;1.60;;;6.00;99.90;;;;;;5011237;28;20725;-69
2022/02/16 06:45:13;;;;;;;6.33;1.43;;;6.00;99.90;;;;;;5011914;28;20351;-69
2022/02/16 06:47:38;;;;;;;1.63;1.53;;;6.00;99.90;;;;;;5012095;28;20211;-69
2022/02/16 06:50:05;;;;;;;1.97;1.80;;;6.00;99.90;;;;;;5012012;28;20227;-69
2022/02/16 06:52:30;;;;;;;1.60;1.50;;;6.10;99.90;;;;;;5011977;28;20195;-69
2022/02/16 06:54:56;;;;;;;2.00;1.87;;;6.10;99.90;;;;;;5013846;28;20410;-69
2022/02/16 06:57:22;;;;;;;2.03;1.93;;;6.00;99.90;;;;;;5012205;28;20172;-69
2022/02/16 06:59:47;;;;;;;1.70;1.60;;;5.90;99.90;;;;;;5011745;28;20258;-70
2022/02/16 07:02:13;;;;;;;1.83;1.73;;;5.90;99.90;;;;;;5011539;28;20192;-68
2022/02/16 07:04:38;;;;;;;2.00;1.90;;;6.00;99.90;;;;;;5011156;28;20551;-69
2022/02/16 07:07:04;;;;;;;2.20;1.20;;;6.10;99.90;;;;;;5011760;28;20203;-69
2022/02/16 07:09:30;;;;;;;1.70;1.37;;;6.00;99.90;;;;;;5011974;28;20164;-68
2022/02/16 07:11:56;;;;;;;2.30;1.70;;;6.00;99.90;;;;;;5011471;28;20184;-68
2022/02/16 07:14:22;;;;;;;1.20;1.10;;;6.00;99.90;;;;;;5011822;28;20561;-69
2022/02/16 07:16:48;;;;;;;1.80;1.70;;;6.00;99.90;;;;;;5011871;28;20203;-69
2022/02/16 07:19:14;;;;;;;1.83;1.73;;;6.10;99.90;;;;;;5011542;28;20504;-68
2022/02/16 07:21:39;;;;;;;2.93;1.67;;;6.00;99.90;;;;;;5011606;28;20207;-69
2022/02/16 07:24:05;;;;;;;1.20;1.00;;;6.00;99.90;;;;;;5011396;28;20218;-69
2022/02/16 07:26:31;;;;;;;1.50;1.40;;;6.10;99.90;;;;;;5011165;28;20203;-69
2022/02/16 07:28:58;;;;;;;1.60;1.50;;;6.10;99.90;;;;;;5011879;28;20399;-69
2022/02/16 07:31:24;;;;;;;1.57;1.47;;;6.10;99.90;;;;;;5011520;28;20180;-69
2022/02/16 07:33:49;;;;;;;2.20;1.70;;;6.10;99.90;;;;;;5011379;28;20407;-69
2022/02/16 07:36:15;;;;;;;3.53;1.40;;;6.10;99.90;;;;;;5011445;28;20227;-70
2022/02/16 07:38:40;;;;;;;1.97;1.40;;;6.20;99.90;;;;;;5011362;28;20172;-68
2022/02/16 07:41:06;;;;;;;51.80;24.70;;;6.30;99.90;;;;;;5011467;28;20176;-69
2022/02/16 07:43:31;;;;;;;14.37;7.97;;;6.40;99.90;;;;;;5011203;28;20199;-69
2022/02/16 07:45:57;;;;;;;6.57;3.40;;;6.40;99.90;;;;;;5011109;28;20207;-69
2022/02/16 07:48:23;;;;;;;6.97;1.83;;;6.40;99.90;;;;;;5011618;28;20180;-68
2022/02/16 07:50:51;;;;;;;11.50;6.47;;;6.40;99.90;;;;;;5011795;28;20169;-68
2022/02/16 07:53:16;;;;;;;3.30;2.97;;;6.50;99.90;;;;;;5013197;28;20241;-68
2022/02/16 07:55:42;;;;;;;1.33;0.93;;;6.30;99.90;;;;;;5015401;28;20411;-67
2022/02/16 07:58:08;;;;;;;2.70;2.10;;;6.50;99.90;;;;;;5015292;28;20176;-68
2022/02/16 08:00:35;;;;;;;4.47;2.03;;;6.50;99.90;;;;;;5014974;28;20418;-68
2022/02/16 08:03:01;;;;;;;1.30;1.20;;;6.30;99.90;;;;;;5014928;28;20530;-68
2022/02/16 08:05:26;;;;;;;1.53;1.43;;;6.30;99.90;;;;;;5016012;28;20927;-71
2022/02/16 08:07:53;;;;;;;2.83;1.83;;;6.20;99.90;;;;;;5016339;28;20176;-70
2022/02/16 08:10:18;;;;;;;1.50;1.40;;;6.30;99.90;;;;;;5016622;28;20176;-68
2022/02/16 08:12:48;;;;;;;1.80;1.63;;;6.20;99.90;;;;;;5014326;28;20435;-67
2022/02/16 08:15:14;;;;;;;1.63;1.53;;;6.30;99.90;;;;;;5011931;28;20180;-68
2022/02/16 08:17:41;;;;;;;1.40;1.30;;;6.30;99.90;;;;;;5014310;28;20918;-70
2022/02/16 08:20:10;;;;;;;2.37;2.17;;;6.20;99.90;;;;;;5014618;28;20447;-69
2022/02/16 08:22:36;;;;;;;1.47;1.37;;;6.20;99.90;;;;;;5013716;28;21005;-68
2022/02/16 08:25:03;;;;;;;1.13;1.03;;;6.20;99.90;;;;;;5013100;28;20616;-68
2022/02/16 08:27:29;;;;;;;1.00;1.00;;;6.30;99.90;;;;;;5013077;28;20187;-69
2022/02/16 08:29:54;;;;;;;2.47;1.30;;;6.30;99.90;;;;;;5013065;28;20407;-68
2022/02/16 08:32:20;;;;;;;1.10;1.00;;;6.40;99.90;;;;;;5013053;28;20204;-68
2022/02/16 08:34:45;;;;;;;1.97;1.33;;;6.50;99.90;;;;;;5012975;28;20185;-68
2022/02/16 08:37:11;;;;;;;1.50;1.00;;;6.60;99.90;;;;;;5013134;28;20172;-68
2022/02/16 08:39:36;;;;;;;1.33;1.00;;;6.60;99.90;;;;;;5013034;28;20184;-68
2022/02/16 08:42:02;;;;;;;1.50;1.40;;;6.70;99.90;;;;;;5012867;28;20198;-68
2022/02/16 08:44:28;;;;;;;1.63;0.97;;;6.80;99.90;;;;;;5012769;28;20258;-68
2022/02/16 08:46:54;;;;;;;2.03;1.20;;;6.70;99.90;;;;;;5012978;28;20494;-68
2022/02/16 08:49:19;;;;;;;0.90;0.90;;;6.70;99.90;;;;;;5012941;28;20404;-68
2022/02/16 08:51:45;;;;;;;1.43;1.03;;;6.70;99.90;;;;;;5012745;28;20216;-68
2022/02/16 08:54:10;;;;;;;7.00;1.00;;;6.70;99.90;;;;;;5012760;28;20184;-68
2022/02/16 08:56:36;;;;;;;2.90;1.47;;;6.60;99.90;;;;;;5012657;28;20169;-68
2022/02/16 08:59:03;;;;;;;1.43;0.90;;;6.70;99.90;;;;;;5012544;28;20199;-68
2022/02/16 09:01:31;;;;;;;0.77;0.77;;;6.70;99.90;;;;;;5012662;28;20496;-70
2022/02/16 09:03:58;;;;;;;1.23;0.97;;;6.70;99.90;;;;;;5011929;28;20437;-69
2022/02/16 09:06:23;;;;;;;0.93;0.90;;;6.70;99.90;;;;;;5012475;28;20434;-68
2022/02/16 09:08:49;;;;;;;0.83;0.83;;;6.70;99.90;;;;;;5012396;28;20921;-68
2022/02/16 09:11:14;;;;;;;0.80;0.80;;;6.70;99.90;;;;;;5012536;28;20623;-69
2022/02/16 09:13:40;;;;;;;1.73;1.00;;;6.70;99.90;;;;;;5012280;28;20571;-68
2022/02/16 09:16:05;;;;;;;0.93;0.93;;;6.70;99.90;;;;;;5012220;28;20208;-69
2022/02/16 09:18:31;;;;;;;1.40;1.00;;;6.70;99.90;;;;;;5012314;28;20188;-69
2022/02/16 09:20:58;;;;;;;0.87;0.87;;;6.80;99.90;;;;;;5012321;28;20180;-69
2022/02/16 09:23:23;;;;;;;1.57;1.47;;;6.80;99.90;;;;;;4970606;28;1213598;-68
2022/02/16 09:25:49;;;;;;;1.13;1.03;;;6.70;99.90;;;;;;5012693;28;20269;-68
2022/02/16 09:28:15;;;;;;;1.13;1.00;;;6.70;99.90;;;;;;5013079;28;20183;-69
2022/02/16 09:30:41;;;;;;;0.80;0.80;;;6.70;99.90;;;;;;5013008;28;20180;-69
2022/02/16 09:33:06;;;;;;;0.90;0.80;;;6.70;99.90;;;;;;5012864;28;20192;-69
2022/02/16 09:35:32;;;;;;;0.70;0.70;;;6.80;99.90;;;;;;5013048;28;20322;-69
2022/02/16 09:37:57;;;;;;;1.93;0.93;;;6.70;99.90;;;;;;5013007;28;20650;-69
2022/02/16 09:40:23;;;;;;;2.70;1.27;;;6.80;99.90;;;;;;5013175;28;20184;-69
2022/02/16 09:42:48;;;;;;;0.90;0.90;;;6.90;99.90;;;;;;5012737;28;20202;-69
2022/02/16 09:45:15;;;;;;;0.80;0.80;;;6.90;99.90;;;;;;5012796;28;20208;-68
2022/02/16 09:47:44;;;;;;;0.90;0.90;;;7.00;99.90;;;;;;5012764;28;20172;-69
2022/02/16 09:50:12;;;;;;;0.73;0.73;;;7.00;99.90;;;;;;5012776;28;20411;-69
2022/02/16 09:52:37;;;;;;;1.03;0.70;;;7.00;99.90;;;;;;5012476;28;20539;-70
2022/02/16 09:55:03;;;;;;;1.17;1.07;;;7.00;99.90;;;;;;5012654;28;20503;-70
2022/02/16 09:57:29;;;;;;;1.93;0.80;;;6.90;99.90;;;;;;4994874;28;20469;-70
2022/02/16 09:59:54;;;;;;;2.80;1.20;;;7.00;99.90;;;;;;5012472;28;20890;-69
2022/02/16 10:02:20;;;;;;;2.60;0.90;;;7.00;99.90;;;;;;5012284;28;20238;-70
2022/02/16 10:04:57;;;;;;;1.50;1.30;;;7.00;99.90;;;;;;5012232;28;20196;-69
2022/02/16 10:07:36;;;;;;;0.90;0.90;;;7.00;99.90;;;;;;5012607;28;20202;-69
2022/02/16 10:10:19;;;;;;;2.40;0.90;;;7.00;99.90;;;;;;5012385;28;20407;-68
2022/02/16 10:12:50;;;;;;;0.97;0.80;;;6.90;99.90;;;;;;5012324;28;20892;-70
2022/02/16 10:15:24;;;;;;;3.03;1.00;;;6.90;99.90;;;;;;5012280;28;20403;-69
2022/02/16 10:18:10;;;;;;;0.80;0.80;;;6.90;99.90;;;;;;5012406;28;20433;-69
2022/02/16 10:20:36;;;;;;;2.50;1.13;;;6.90;99.90;;;;;;5012559;28;20506;-69
2022/02/16 10:23:01;;;;;;;0.90;0.90;;;6.90;99.90;;;;;;5011997;28;20549;-73
2022/02/16 10:25:32;;;;;;;5.13;4.10;;;6.90;99.90;;;;;;5012100;28;20312;-70
2022/02/16 10:28:13;;;;;;;0.73;0.73;;;6.90;99.90;;;;;;5012118;28;20180;-73
2022/02/16 10:30:53;;;;;;;0.80;0.80;;;6.80;99.90;;;;;;5012225;28;20750;-71
2022/02/16 10:33:22;;;;;;;0.70;0.70;;;6.80;99.90;;;;;;5011967;28;20431;-74
2022/02/16 10:35:50;;;;;;;3.53;0.80;;;6.80;99.90;;;;;;5011959;28;20434;-70
2022/02/16 10:38:16;;;;;;;1.07;1.00;;;6.80;99.90;;;;;;5012139;28;20438;-70
2022/02/16 10:40:41;;;;;;;0.80;0.80;;;6.70;99.90;;;;;;5012022;28;20415;-69
2022/02/16 10:43:08;;;;;;;0.80;0.77;;;6.70;99.90;;;;;;5011878;28;20439;-70
2022/02/16 10:45:45;;;;;;;0.90;0.90;;;6.70;99.90;;;;;;5011507;28;20223;-68
2022/02/16 10:48:10;;;;;;;1.73;0.80;;;6.70;99.90;;;;;;5012017;28;20406;-69
2022/02/16 10:50:45;;;;;;;1.00;0.80;;;6.70;99.90;;;;;;5012184;28;20403;-68
2022/02/16 10:53:10;;;;;;;0.60;0.60;;;6.70;99.90;;;;;;5011847;28;20232;-70
2022/02/16 10:55:48;;;;;;;0.80;0.80;;;6.70;99.90;;;;;;5011789;28;20458;-69
2022/02/16 10:58:16;;;;;;;1.33;0.90;;;6.90;99.90;;;;;;5011551;28;20423;-69
2022/02/16 11:00:43;;;;;;;1.10;0.90;;;6.90;99.90;;;;;;5011706;28;20937;-69
2022/02/16 11:03:11;;;;;;;1.10;1.00;;;6.90;99.90;;;;;;5011479;28;20431;-69
2022/02/16 11:05:43;;;;;;;0.70;0.70;;;6.90;99.90;;;;;;5011514;28;20451;-69
2022/02/16 11:08:13;;;;;;;2.70;0.80;;;7.00;99.90;;;;;;5011578;28;20456;-68
2022/02/16 11:10:44;;;;;;;0.77;0.77;;;7.00;99.90;;;;;;5011593;28;20402;-68
2022/02/16 11:13:11;;;;;;;0.90;0.90;;;7.10;99.90;;;;;;5011648;28;20415;-68
2022/02/16 11:15:37;;;;;;;0.90;0.90;;;7.10;99.90;;;;;;5016837;28;20417;-68
2022/02/16 11:18:13;;;;;;;1.03;0.80;;;7.10;99.90;;;;;;5012100;28;20415;-68
2022/02/16 11:20:39;;;;;;;1.00;0.70;;;7.10;99.90;;;;;;5011600;28;20403;-68
2022/02/16 11:23:05;;;;;;;0.93;0.90;;;7.20;99.90;;;;;;5010899;28;20469;-68
2022/02/16 11:25:36;;;;;;;0.87;0.80;;;7.10;99.90;;;;;;5011735;28;20545;-68
2022/02/16 11:28:11;;;;;;;0.87;0.87;;;7.20;99.90;;;;;;5013188;28;20411;-68
2022/02/16 11:30:42;;;;;;;0.87;0.80;;;7.20;99.90;;;;;;5015517;28;20430;-68
2022/02/16 11:33:20;;;;;;;0.73;0.73;;;7.10;99.90;;;;;;5015148;28;20419;-68
2022/02/16 11:36:00;;;;;;;0.80;0.80;;;7.10;99.90;;;;;;5015161;28;20403;-68
2022/02/16 11:38:41;;;;;;;0.93;0.90;;;7.10;99.90;;;;;;5015499;28;20414;-68
2022/02/16 11:41:26;;;;;;;0.93;0.87;;;7.10;99.90;;;;;;5015197;28;20419;-68
2022/02/16 11:44:03;;;;;;;0.90;0.90;;;7.10;99.90;;;;;;5015314;28;20415;-68
2022/02/16 11:46:42;;;;;;;1.17;1.00;;;7.00;99.90;;;;;;5015185;28;20772;-69
2022/02/16 11:49:27;;;;;;;1.30;0.87;;;7.10;99.90;;;;;;5015151;28;20399;-67
2022/02/16 11:51:54;;;;;;;3.00;1.20;;;7.00;99.90;;;;;;5014688;28;20427;-67
2022/02/16 11:54:44;;;;;;;1.30;1.20;;;7.10;99.90;;;;;;5014634;28;20423;-67
2022/02/16 11:57:54;;;;;;;1.60;1.30;;;7.00;99.90;;;;;;5015264;28;20395;-68
2022/02/16 12:00:21;;;;;;;4.73;1.20;;;7.00;99.90;;;;;;4965223;28;20900;-69
2022/02/16 12:03:14;;;;;;;2.40;1.00;;;7.00;99.90;;;;;;4996117;28;20432;-69
2022/02/16 12:05:53;;;;;;;1.53;1.40;;;6.90;99.90;;;;;;4987336;28;20492;-68
2022/02/16 12:08:23;;;;;;;1.13;1.03;;;6.90;99.90;;;;;;4995190;28;20891;-68
2022/02/16 12:11:21;;;;;;;1.37;1.00;;;6.90;99.90;;;;;;4995098;28;20408;-68
2022/02/16 12:13:58;;;;;;;0.90;0.90;;;6.90;99.90;;;;;;4994985;28;20825;-69
2022/02/16 12:16:30;;;;;;;1.07;1.00;;;6.90;99.90;;;;;;5006094;28;20974;-68
2022/02/16 12:19:00;;;;;;;2.40;0.90;;;6.90;99.90;;;;;;5014467;28;20400;-67
2022/02/16 12:21:32;;;;;;;1.70;1.60;;;6.90;99.90;;;;;;5014138;28;20465;-67
2022/02/16 12:24:01;;;;;;;2.20;1.53;;;6.90;99.90;;;;;;5014317;28;20485;-67
2022/02/16 12:26:34;;;;;;;0.80;0.80;;;7.00;99.90;;;;;;5013929;28;20442;-67
2022/02/16 12:29:05;;;;;;;1.20;1.10;;;7.00;99.90;;;;;;5013937;28;20851;-67
2022/02/16 12:31:33;;;;;;;1.47;1.07;;;7.00;99.90;;;;;;5014034;28;20399;-67
2022/02/16 12:34:05;;;;;;;1.03;1.03;;;7.00;99.90;;;;;;5013798;28;20411;-68
2022/02/16 12:36:32;;;;;;;1.40;1.30;;;7.00;99.90;;;;;;5013906;28;20404;-67
2022/02/16 12:38:59;;;;;;;0.80;0.80;;;7.10;99.90;;;;;;5012680;28;20902;-67
2022/02/16 12:41:26;;;;;;;0.93;0.83;;;7.00;99.90;;;;;;5013549;28;20961;-67
2022/02/16 12:43:54;;;;;;;0.87;0.87;;;7.10;99.90;;;;;;5013755;28;20465;-68
2022/02/16 12:46:21;;;;;;;1.23;1.00;;;7.10;99.90;;;;;;5013501;28;20482;-67
2022/02/16 12:48:48;;;;;;;1.20;1.10;;;7.10;99.90;;;;;;5014532;28;20468;-67
2022/02/16 12:51:23;;;;;;;1.40;1.10;;;7.20;99.90;;;;;;5014127;28;20754;-66
2022/02/16 12:53:50;;;;;;;3.53;1.47;;;7.30;99.90;;;;;;5014230;28;20433;-66
2022/02/16 12:56:16;;;;;;;0.80;0.80;;;7.40;99.90;;;;;;5013656;28;20419;-66
2022/02/16 12:58:42;;;;;;;1.13;0.90;;;7.40;99.90;;;;;;4996312;28;20411;-67